createdAt,value
2022-09-06T00:00:00.612Z,0.00
2022-09-06T00:01:00.649Z,0.00
2022-09-06T00:02:00.639Z,0.00
2022-09-06T00:03:00.563Z,0.00
2022-09-06T00:04:00.562Z,0.00
2022-09-06T00:05:00.542Z,0.00
2022-09-06T00:06:01.442Z,0.00
2022-09-06T00:07:00.534Z,0.00
2022-09-06T00:08:00.514Z,0.00
2022-09-06T00:09:00.536Z,0.00
2022-09-06T00:11:01.428Z,0.00
2022-09-06T00:12:00.374Z,0.00
2022-09-06T00:13:00.445Z,0.00
2022-09-06T00:14:00.434Z,0.00
2022-09-06T00:15:00.472Z,0.00
2022-09-06T00:16:00.535Z,0.00
2022-09-06T00:17:00.527Z,0.00
2022-09-06T00:18:00.575Z,0.00
2022-09-06T00:19:00.586Z,0.00
2022-09-06T00:21:00.256Z,0.00
2022-09-06T00:22:00.303Z,0.00
2022-09-06T00:25:00.254Z,0.00
2022-09-06T00:26:00.299Z,0.00
2022-09-06T00:27:00.341Z,0.00
2022-09-06T00:32:00.117Z,0.00
2022-09-06T00:34:00.084Z,0.00
2022-09-06T00:36:00.193Z,0.00
2022-09-06T00:37:00.184Z,0.00
2022-09-06T00:38:00.199Z,0.00
2022-09-06T00:39:00.198Z,0.00
2022-09-06T00:40:00.312Z,0.00
2022-09-06T00:41:00.218Z,0.00
2022-09-06T00:42:00.235Z,0.00
2022-09-06T00:43:00.240Z,0.00
2022-09-06T00:45:00.324Z,0.00
2022-09-06T00:46:00.320Z,0.00
2022-09-06T00:46:59.915Z,0.00
2022-09-06T00:47:59.976Z,0.00
2022-09-06T00:48:59.876Z,0.00
2022-09-06T00:49:59.870Z,0.00
2022-09-06T00:50:59.920Z,0.00
2022-09-06T00:51:59.981Z,0.00
2022-09-06T00:52:59.830Z,0.00
2022-09-06T00:53:59.890Z,0.00
2022-09-06T00:54:59.955Z,0.00
2022-09-06T00:55:59.980Z,0.00
2022-09-06T00:56:59.772Z,0.00
2022-09-06T00:57:59.855Z,0.00
2022-09-06T00:58:59.858Z,0.00
2022-09-06T00:59:59.862Z,0.00
2022-09-06T01:00:59.884Z,0.00
2022-09-06T01:01:59.958Z,0.00
2022-09-06T01:03:59.904Z,0.00
2022-09-06T01:04:59.894Z,0.00
2022-09-06T01:06:59.877Z,0.00
2022-09-06T01:07:59.907Z,0.00
2022-09-06T01:08:59.906Z,0.00
2022-09-06T01:10:00.891Z,0.00
2022-09-06T01:10:59.944Z,0.00
2022-09-06T01:12:59.557Z,0.00
2022-09-06T01:13:59.618Z,0.00
2022-09-06T01:14:59.628Z,0.00
2022-09-06T01:15:59.642Z,0.00
2022-09-06T01:16:59.562Z,0.00
2022-09-06T01:17:59.486Z,0.00
2022-09-06T01:18:59.562Z,0.00
2022-09-06T01:19:59.647Z,0.00
2022-09-06T01:21:00.399Z,0.00
2022-09-06T01:21:59.406Z,0.00
2022-09-06T01:24:59.546Z,0.00
2022-09-06T01:27:59.616Z,0.00
2022-09-06T01:29:00.632Z,0.00
2022-09-06T01:29:59.706Z,0.00
2022-09-06T01:31:59.805Z,0.00
2022-09-06T01:32:59.818Z,0.00
2022-09-06T01:33:59.856Z,0.00
2022-09-06T01:34:59.872Z,0.00
2022-09-06T01:35:59.930Z,0.00
2022-09-06T01:37:10.431Z,0.00
2022-09-06T01:38:00.981Z,0.00
2022-09-06T01:39:59.234Z,0.00
2022-09-06T01:40:59.230Z,0.00
2022-09-06T01:41:59.270Z,0.00
2022-09-06T01:43:59.309Z,0.00
2022-09-06T01:44:59.340Z,0.00
2022-09-06T01:45:59.453Z,0.00
2022-09-06T01:46:59.572Z,0.00
2022-09-06T01:47:59.465Z,0.00
2022-09-06T01:49:59.522Z,0.00
2022-09-06T01:50:59.556Z,0.00
2022-09-06T01:52:59.115Z,0.00
2022-09-06T01:53:59.107Z,0.00
2022-09-06T01:54:59.122Z,0.00
2022-09-06T01:56:59.182Z,0.00
2022-09-06T01:57:59.204Z,0.00
2022-09-06T01:58:59.252Z,0.00
2022-09-06T01:59:59.302Z,0.00
2022-09-06T02:00:59.330Z,0.00
2022-09-06T02:02:59.894Z,0.00
2022-09-06T02:04:59.007Z,0.00
2022-09-06T02:05:59.044Z,0.00
2022-09-06T02:06:59.096Z,0.00
2022-09-06T02:07:59.117Z,0.00
2022-09-06T02:08:59.157Z,0.00
2022-09-06T02:09:58.829Z,0.00
2022-09-06T02:10:58.870Z,0.00
2022-09-06T02:11:58.946Z,0.00
2022-09-06T02:12:59.022Z,0.00
2022-09-06T02:13:59.089Z,0.00
2022-09-06T02:16:59.378Z,0.00
2022-09-06T02:17:59.368Z,0.00
2022-09-06T02:18:59.435Z,0.00
2022-09-06T02:20:59.587Z,0.00
2022-09-06T02:21:58.630Z,0.00
2022-09-06T02:22:58.728Z,0.00
2022-09-06T02:23:58.784Z,0.00
2022-09-06T02:24:58.867Z,0.00
2022-09-06T02:25:58.988Z,0.00
2022-09-06T02:26:59.016Z,0.00
2022-09-06T02:27:59.084Z,0.00
2022-09-06T02:28:59.110Z,0.00
2022-09-06T02:29:59.172Z,0.00
2022-09-06T02:30:59.271Z,0.00
2022-09-06T02:31:59.271Z,0.00
2022-09-06T02:34:00.191Z,0.00
2022-09-06T02:34:59.385Z,0.00
2022-09-06T02:35:58.353Z,0.00
2022-09-06T02:36:58.449Z,0.00
2022-09-06T02:37:58.433Z,0.00
2022-09-06T02:38:58.460Z,0.00
2022-09-06T02:40:58.525Z,0.00
2022-09-06T02:41:58.571Z,0.00
2022-09-06T02:42:58.603Z,0.00
2022-09-06T02:43:58.635Z,0.00
2022-09-06T02:44:58.678Z,0.00
2022-09-06T02:45:58.754Z,0.00
2022-09-06T02:46:58.726Z,0.00
2022-09-06T02:47:58.772Z,0.00
2022-09-06T02:48:58.778Z,0.00
2022-09-06T02:49:58.795Z,0.00
2022-09-06T02:50:58.812Z,0.00
2022-09-06T02:52:58.858Z,0.00
2022-09-06T02:53:58.892Z,0.00
2022-09-06T02:54:58.918Z,0.00
2022-09-06T02:56:58.977Z,0.00
2022-09-06T02:57:59.017Z,0.00
2022-09-06T02:58:59.038Z,0.00
2022-09-06T02:59:58.052Z,0.00
2022-09-06T03:01:58.189Z,0.00
2022-09-06T03:02:58.121Z,0.00
2022-09-06T03:03:58.110Z,0.00
2022-09-06T03:04:58.128Z,0.00
2022-09-06T03:05:58.130Z,0.00
2022-09-06T03:06:58.150Z,0.00
2022-09-06T03:07:58.255Z,0.00
2022-09-06T03:09:58.258Z,0.00
2022-09-06T03:10:57.998Z,0.00
2022-09-06T03:11:58.008Z,0.00
2022-09-06T03:12:58.066Z,0.00
2022-09-06T03:13:58.100Z,0.00
2022-09-06T03:14:58.141Z,0.00
2022-09-06T03:15:58.190Z,0.00
2022-09-06T03:16:58.322Z,0.00
2022-09-06T03:17:58.360Z,0.00
2022-09-06T03:18:58.442Z,0.00
2022-09-06T03:19:58.500Z,0.00
2022-09-06T03:21:58.662Z,0.00
2022-09-06T03:23:57.811Z,0.00
2022-09-06T03:24:57.904Z,0.00
2022-09-06T03:25:57.938Z,0.00
2022-09-06T03:26:57.987Z,0.00
2022-09-06T03:28:57.795Z,0.00
2022-09-06T03:30:57.900Z,0.00
2022-09-06T03:31:57.844Z,0.00
2022-09-06T03:33:00.822Z,0.00
2022-09-06T03:33:57.690Z,0.00
2022-09-06T03:34:57.664Z,0.00
2022-09-06T03:35:57.705Z,0.00
2022-09-06T03:36:57.783Z,0.00
2022-09-06T03:37:57.809Z,0.00
2022-09-06T03:38:57.886Z,0.00
2022-09-06T03:39:58.018Z,0.00
2022-09-06T03:40:58.034Z,0.00
2022-09-06T03:41:58.093Z,0.00
2022-09-06T03:42:58.235Z,0.00
2022-09-06T03:43:58.243Z,0.00
2022-09-06T03:44:58.328Z,0.00
2022-09-06T03:45:58.395Z,0.00
2022-09-06T03:46:58.374Z,0.00
2022-09-06T03:47:58.395Z,0.00
2022-09-06T03:48:57.484Z,0.00
2022-09-06T03:49:57.527Z,0.00
2022-09-06T03:50:57.541Z,0.00
2022-09-06T03:51:57.556Z,0.00
2022-09-06T03:54:57.637Z,0.00
2022-09-06T03:55:57.411Z,0.00
2022-09-06T03:56:57.419Z,0.00
2022-09-06T03:57:57.435Z,0.00
2022-09-06T03:58:57.507Z,0.00
2022-09-06T03:59:57.535Z,0.00
2022-09-06T04:00:57.602Z,0.00
2022-09-06T04:01:57.604Z,0.00
2022-09-06T04:03:01.491Z,0.02
2022-09-06T04:03:57.663Z,0.02
2022-09-06T04:04:57.700Z,0.02
2022-09-06T04:05:57.770Z,0.01
2022-09-06T04:06:57.772Z,0.00
2022-09-06T04:07:57.823Z,0.06
2022-09-06T04:08:57.870Z,0.01
2022-09-06T04:09:57.890Z,0.01
2022-09-06T04:10:57.928Z,0.03
2022-09-06T04:11:58.166Z,0.07
2022-09-06T04:12:57.982Z,0.05
2022-09-06T04:13:58.018Z,0.05
2022-09-06T04:14:57.043Z,0.14
2022-09-06T04:15:57.042Z,0.17
2022-09-06T04:16:57.109Z,0.21
2022-09-06T04:17:57.101Z,0.22
2022-09-06T04:18:57.150Z,0.15
2022-09-06T04:19:57.183Z,0.31
2022-09-06T04:20:57.189Z,0.38
2022-09-06T04:21:57.228Z,0.31
2022-09-06T04:22:57.250Z,0.28
2022-09-06T04:23:57.292Z,0.48
2022-09-06T04:24:57.348Z,0.45
2022-09-06T04:25:57.373Z,0.59
2022-09-06T04:26:58.372Z,1.40
2022-09-06T04:27:57.452Z,1.50
2022-09-06T04:28:57.497Z,1.61
2022-09-06T04:29:57.552Z,1.92
2022-09-06T04:31:01.977Z,1.95
2022-09-06T04:31:58.681Z,2.57
2022-09-06T04:32:57.656Z,2.38
2022-09-06T04:33:57.697Z,2.69
2022-09-06T04:34:57.735Z,3.08
2022-09-06T04:35:56.739Z,3.49
2022-09-06T04:36:56.751Z,4.07
2022-09-06T04:37:56.794Z,4.71
2022-09-06T04:38:56.827Z,5.38
2022-09-06T04:39:56.909Z,6.04
2022-09-06T04:40:56.910Z,7.16
2022-09-06T04:41:56.953Z,8.23
2022-09-06T04:42:56.999Z,9.57
2022-09-06T04:43:57.021Z,11.02
2022-09-06T04:44:57.068Z,12.82
2022-09-06T04:45:57.186Z,14.61
2022-09-06T04:46:57.151Z,16.94
2022-09-06T04:47:57.169Z,19.08
2022-09-06T04:48:57.216Z,21.79
2022-09-06T04:49:57.237Z,25.16
2022-09-06T04:50:57.286Z,28.62
2022-09-06T04:51:57.345Z,32.40
2022-09-06T04:52:57.394Z,36.70
2022-09-06T04:53:57.416Z,41.35
2022-09-06T04:54:57.469Z,46.68
2022-09-06T04:55:57.659Z,52.34
2022-09-06T04:56:56.477Z,58.85
2022-09-06T04:57:56.548Z,65.98
2022-09-06T04:58:56.585Z,73.34
2022-09-06T04:59:56.647Z,81.29
2022-09-06T05:00:56.767Z,90.27
2022-09-06T05:01:56.838Z,100.07
2022-09-06T05:02:56.808Z,110.43
2022-09-06T05:03:57.303Z,121.53
2022-09-06T05:04:56.861Z,134.14
2022-09-06T05:05:56.891Z,146.11
2022-09-06T05:06:56.941Z,159.31
2022-09-06T05:07:57.010Z,173.53
2022-09-06T05:08:57.051Z,189.12
2022-09-06T05:09:58.022Z,203.70
2022-09-06T05:10:57.125Z,219.95
2022-09-06T05:11:57.166Z,231.13
2022-09-06T05:12:57.165Z,228.82
2022-09-06T05:13:57.169Z,232.99
2022-09-06T05:14:57.194Z,239.02
2022-09-06T05:15:56.239Z,245.07
2022-09-06T05:16:56.387Z,258.17
2022-09-06T05:17:56.324Z,272.05
2022-09-06T05:18:56.373Z,285.51
2022-09-06T05:19:56.395Z,299.35
2022-09-06T05:20:56.464Z,313.40
2022-09-06T05:21:56.536Z,327.54
2022-09-06T05:22:56.585Z,342.10
2022-09-06T05:23:58.621Z,356.65
2022-09-06T05:24:56.705Z,374.31
2022-09-06T05:25:56.781Z,388.23
2022-09-06T05:26:56.808Z,402.17
2022-09-06T05:27:56.847Z,416.59
2022-09-06T05:28:56.925Z,431.18
2022-09-06T05:29:56.940Z,446.62
2022-09-06T05:30:56.997Z,459.69
2022-09-06T05:31:56.165Z,473.48
2022-09-06T05:32:56.047Z,487.55
2022-09-06T05:33:56.129Z,500.65
2022-09-06T05:34:56.177Z,515.64
2022-09-06T05:35:56.211Z,531.06
2022-09-06T05:36:56.250Z,544.58
2022-09-06T05:37:56.299Z,558.93
2022-09-06T05:38:56.380Z,572.74
2022-09-06T05:39:56.445Z,587.72
2022-09-06T05:40:56.447Z,601.57
2022-09-06T05:41:56.521Z,615.50
2022-09-06T05:42:56.543Z,629.78
2022-09-06T05:43:56.608Z,642.87
2022-09-06T05:44:56.665Z,654.30
2022-09-06T05:45:56.745Z,668.15
2022-09-06T05:46:56.761Z,679.04
2022-09-06T05:47:56.779Z,688.63
2022-09-06T05:48:55.782Z,695.58
2022-09-06T05:49:55.870Z,703.33
2022-09-06T05:50:56.827Z,709.36
2022-09-06T05:51:55.922Z,716.98
2022-09-06T05:52:55.930Z,724.04
2022-09-06T05:53:55.977Z,808.34
2022-09-06T05:54:56.112Z,816.24
2022-09-06T05:55:56.090Z,822.83
2022-09-06T05:56:56.090Z,821.48
2022-09-06T05:57:56.143Z,828.06
2022-09-06T05:58:58.172Z,832.68
2022-09-06T05:59:56.243Z,839.28
2022-09-06T06:00:56.306Z,843.30
2022-09-06T06:01:56.343Z,848.60
2022-09-06T06:02:56.414Z,856.56
2022-09-06T06:03:56.383Z,866.29
2022-09-06T06:04:56.462Z,875.75
2022-09-06T06:05:57.411Z,883.77
2022-09-06T06:06:56.510Z,895.05
2022-09-06T06:07:56.524Z,906.04
2022-09-06T06:08:55.534Z,914.85
2022-09-06T06:09:55.610Z,926.43
2022-09-06T06:10:55.673Z,939.08
2022-09-06T06:11:55.771Z,947.32
2022-09-06T06:12:55.913Z,955.64
2022-09-06T06:13:55.904Z,969.85
2022-09-06T06:14:55.966Z,977.96
2022-09-06T06:15:56.068Z,988.97
2022-09-06T06:16:56.185Z,998.48
2022-09-06T06:17:56.241Z,1009.63
2022-09-06T06:18:56.335Z,1019.17
2022-09-06T06:19:55.343Z,1028.09
2022-09-06T06:20:55.390Z,1037.01
2022-09-06T06:21:56.535Z,1047.63
2022-09-06T06:22:55.475Z,1055.54
2022-09-06T06:23:55.535Z,1062.81
2022-09-06T06:24:55.566Z,1075.24
2022-09-06T06:25:55.582Z,1081.05
2022-09-06T06:26:55.642Z,1087.25
2022-09-06T06:27:55.670Z,1097.87
2022-09-06T06:28:55.709Z,1103.11
2022-09-06T06:29:55.738Z,1112.27
2022-09-06T06:30:55.743Z,1120.94
2022-09-06T06:31:55.855Z,1123.43
2022-09-06T06:32:56.777Z,1132.01
2022-09-06T06:33:55.859Z,1136.74
2022-09-06T06:34:55.890Z,1139.82
2022-09-06T06:35:55.907Z,1146.85
2022-09-06T06:36:55.939Z,1155.14
2022-09-06T06:37:55.957Z,1161.27
2022-09-06T06:38:56.007Z,1167.00
2022-09-06T06:39:56.281Z,1174.23
2022-09-06T06:41:00.933Z,1177.83
2022-09-06T06:41:56.091Z,1181.73
2022-09-06T06:42:55.147Z,1188.85
2022-09-06T06:43:55.179Z,1195.04
2022-09-06T06:44:55.207Z,1197.30
2022-09-06T06:45:55.285Z,1200.91
2022-09-06T06:46:55.219Z,1204.42
2022-09-06T06:47:55.252Z,1207.56
2022-09-06T06:48:55.514Z,1210.32
2022-09-06T06:49:55.361Z,1215.57
2022-09-06T06:50:55.371Z,1216.81
2022-09-06T06:51:55.393Z,1223.34
2022-09-06T06:52:55.432Z,1221.76
2022-09-06T06:53:55.450Z,1223.48
2022-09-06T06:54:55.479Z,1223.67
2022-09-06T06:55:55.532Z,1225.60
2022-09-06T06:56:55.570Z,1228.44
2022-09-06T06:57:55.602Z,1227.20
2022-09-06T06:58:55.652Z,1225.51
2022-09-06T06:59:55.690Z,1229.86
2022-09-06T07:00:55.830Z,1228.57
2022-09-06T07:01:55.903Z,1229.86
2022-09-06T07:02:54.763Z,1229.01
2022-09-06T07:03:54.822Z,1226.73
2022-09-06T07:04:54.861Z,1229.41
2022-09-06T07:06:12.046Z,1226.20
2022-09-06T07:07:55.965Z,1227.79
2022-09-06T07:08:54.973Z,1223.57
2022-09-06T07:10:56.030Z,1220.90
2022-09-06T07:11:55.006Z,1220.50
2022-09-06T07:12:55.019Z,1218.02
2022-09-06T07:13:55.040Z,1213.88
2022-09-06T07:14:55.057Z,1210.47
2022-09-06T07:15:55.104Z,1211.07
2022-09-06T07:16:55.145Z,1211.55
2022-09-06T07:17:55.137Z,1204.79
2022-09-06T07:18:55.154Z,1206.26
2022-09-06T07:20:12.734Z,1207.94
2022-09-06T07:21:56.255Z,1206.23
2022-09-06T07:22:55.388Z,1204.60
2022-09-06T07:24:10.813Z,1205.69
2022-09-06T07:24:56.295Z,1205.78
2022-09-06T07:25:55.344Z,1202.96
2022-09-06T07:27:56.406Z,1204.14
2022-09-06T07:28:55.410Z,1202.16
2022-09-06T07:29:54.423Z,1202.04
2022-09-06T07:30:54.475Z,1198.03
2022-09-06T07:32:55.547Z,1195.48
2022-09-06T07:33:55.757Z,1198.61
2022-09-06T07:34:54.614Z,1195.00
2022-09-06T07:35:54.640Z,1194.28
2022-09-06T07:36:54.660Z,1190.09
2022-09-06T07:37:54.710Z,1188.35
2022-09-06T07:38:54.747Z,1189.27
2022-09-06T07:39:54.857Z,1186.85
2022-09-06T07:40:54.788Z,1185.25
2022-09-06T07:41:54.812Z,1184.89
2022-09-06T07:42:54.825Z,1187.22
2022-09-06T07:43:54.842Z,1189.05
2022-09-06T07:44:54.883Z,1186.67
2022-09-06T07:45:54.899Z,1187.94
2022-09-06T07:46:55.281Z,1187.24
2022-09-06T07:48:54.969Z,1192.31
2022-09-06T07:50:59.202Z,1187.10
2022-09-06T07:51:55.015Z,1187.28
2022-09-06T07:53:14.118Z,1187.82
2022-09-06T07:54:07.420Z,1188.00
2022-09-06T07:54:56.069Z,1186.50
2022-09-06T07:55:54.065Z,1187.71
2022-09-06T07:56:54.097Z,1188.07
2022-09-06T07:57:54.111Z,1187.74
2022-09-06T07:58:54.123Z,1186.57
2022-09-06T07:59:54.173Z,1182.42
2022-09-06T08:00:54.224Z,1177.94
2022-09-06T08:01:54.234Z,1182.89
2022-09-06T08:02:54.228Z,1180.74
2022-09-06T08:03:54.225Z,1182.66
2022-09-06T08:04:54.275Z,1180.62
2022-09-06T08:06:11.002Z,1180.75
2022-09-06T08:09:54.285Z,1173.52
2022-09-06T08:10:54.266Z,1171.45
2022-09-06T08:11:54.271Z,1168.76
2022-09-06T08:12:54.305Z,1170.69
2022-09-06T08:13:54.340Z,1173.63
2022-09-06T08:14:54.359Z,1169.52
2022-09-06T08:15:54.432Z,1168.75
2022-09-06T08:16:54.377Z,1165.90
2022-09-06T08:17:54.367Z,1159.00
2022-09-06T08:18:54.407Z,1160.87
2022-09-06T08:19:54.429Z,1157.30
2022-09-06T08:20:54.457Z,1156.28
2022-09-06T08:21:55.444Z,1152.07
2022-09-06T08:22:55.475Z,1150.45
2022-09-06T08:23:54.577Z,1149.15
2022-09-06T08:24:54.578Z,1148.43
2022-09-06T08:25:54.583Z,1144.88
2022-09-06T08:26:54.620Z,1142.67
2022-09-06T08:27:54.633Z,1143.46
2022-09-06T08:28:53.633Z,1136.58
2022-09-06T08:29:53.659Z,1135.24
2022-09-06T08:30:53.673Z,1131.91
2022-09-06T08:31:53.820Z,1126.50
2022-09-06T08:32:53.711Z,1124.06
2022-09-06T08:33:53.734Z,1124.67
2022-09-06T08:34:53.780Z,1120.29
2022-09-06T08:35:53.792Z,1115.47
2022-09-06T08:36:53.811Z,1112.62
2022-09-06T08:37:53.918Z,1108.61
2022-09-06T08:38:53.860Z,1101.58
2022-09-06T08:39:53.934Z,1098.37
2022-09-06T08:40:53.902Z,1093.47
2022-09-06T08:41:53.938Z,1090.73
2022-09-06T08:42:53.971Z,1093.45
2022-09-06T08:44:55.618Z,1083.38
2022-09-06T08:45:55.876Z,1083.54
2022-09-06T08:46:54.104Z,1079.42
2022-09-06T08:47:54.070Z,1077.69
2022-09-06T08:48:54.078Z,1072.74
2022-09-06T08:49:54.101Z,1071.95
2022-09-06T08:50:54.115Z,1068.95
2022-09-06T08:51:54.148Z,1066.90
2022-09-06T08:53:13.656Z,1064.78
2022-09-06T08:53:55.207Z,1062.79
2022-09-06T08:54:54.239Z,1060.86
2022-09-06T08:55:54.256Z,1062.84
2022-09-06T08:56:53.268Z,1057.72
2022-09-06T08:57:53.335Z,1058.04
2022-09-06T08:58:53.325Z,1052.63
2022-09-06T08:59:53.327Z,1054.93
2022-09-06T09:00:53.430Z,1058.01
2022-09-06T09:01:53.465Z,1060.03
2022-09-06T09:02:53.388Z,1061.03
2022-09-06T09:03:53.389Z,1064.14
2022-09-06T09:04:53.409Z,1070.80
2022-09-06T09:05:53.439Z,1075.23
2022-09-06T09:06:53.443Z,1079.22
2022-09-06T09:07:53.486Z,1080.26
2022-09-06T09:08:53.497Z,1084.68
2022-09-06T09:09:53.511Z,1087.68
2022-09-06T09:10:53.539Z,1093.11
2022-09-06T09:11:53.530Z,1096.96
2022-09-06T09:12:53.529Z,1099.36
2022-09-06T09:13:55.669Z,1101.68
2022-09-06T09:14:53.563Z,1104.02
2022-09-06T09:15:53.648Z,1106.35
2022-09-06T09:16:53.597Z,1110.53
2022-09-06T09:17:53.650Z,1116.91
2022-09-06T09:18:53.644Z,1122.45
2022-09-06T09:19:53.653Z,1125.88
2022-09-06T09:20:53.690Z,1129.83
2022-09-06T09:21:53.683Z,1131.12
2022-09-06T09:22:53.694Z,1135.27
2022-09-06T09:23:53.713Z,1137.95
2022-09-06T09:24:53.706Z,1150.15
2022-09-06T09:25:53.711Z,1154.59
2022-09-06T09:26:53.725Z,1160.83
2022-09-06T09:27:53.743Z,1166.81
2022-09-06T09:28:53.747Z,1173.36
2022-09-06T09:30:54.757Z,1185.52
2022-09-06T09:31:54.170Z,1190.24
2022-09-06T09:32:53.795Z,1197.81
2022-09-06T09:33:53.797Z,1202.69
2022-09-06T09:34:53.820Z,1210.76
2022-09-06T09:35:52.736Z,1212.12
2022-09-06T09:37:57.373Z,1221.53
2022-09-06T09:38:53.793Z,1221.32
2022-09-06T09:39:52.850Z,1227.04
2022-09-06T09:40:52.737Z,1228.67
2022-09-06T09:41:52.747Z,1228.10
2022-09-06T09:42:53.717Z,1228.25
2022-09-06T09:43:52.764Z,1234.20
2022-09-06T09:44:52.790Z,1237.72
2022-09-06T09:45:52.769Z,1231.91
2022-09-06T09:46:52.869Z,1233.81
2022-09-06T09:47:52.787Z,1234.14
2022-09-06T09:48:52.795Z,1235.55
2022-09-06T09:49:52.813Z,1234.65
2022-09-06T09:50:52.812Z,1231.29
2022-09-06T09:51:52.790Z,1234.48
2022-09-06T09:52:52.790Z,1235.62
2022-09-06T09:53:52.784Z,1236.78
2022-09-06T09:54:52.833Z,1236.47
2022-09-06T09:55:52.833Z,1236.91
2022-09-06T09:56:52.833Z,1238.40
2022-09-06T09:57:52.824Z,1241.84
2022-09-06T09:58:52.793Z,1241.80
2022-09-06T09:59:52.822Z,1239.87
2022-09-06T10:00:52.855Z,1241.77
2022-09-06T10:01:52.859Z,1239.37
2022-09-06T10:02:52.822Z,1242.10
2022-09-06T10:04:53.811Z,1245.68
2022-09-06T10:05:57.593Z,1245.67
2022-09-06T10:07:09.811Z,1244.93
2022-09-06T10:07:53.819Z,1245.98
2022-09-06T10:08:52.827Z,1245.05
2022-09-06T10:09:52.825Z,1246.74
2022-09-06T10:10:52.844Z,1243.49
2022-09-06T10:11:52.852Z,1245.37
2022-09-06T10:12:52.874Z,1245.85
2022-09-06T10:13:52.893Z,1243.31
2022-09-06T10:14:52.917Z,1245.91
2022-09-06T10:15:52.924Z,1250.82
2022-09-06T10:16:52.912Z,1251.81
2022-09-06T10:17:52.936Z,1252.06
2022-09-06T10:18:52.967Z,1255.76
2022-09-06T10:19:52.958Z,1257.54
2022-09-06T10:20:52.947Z,1258.25
2022-09-06T10:21:53.911Z,1259.70
2022-09-06T10:22:52.971Z,1264.81
2022-09-06T10:24:53.977Z,1264.05
2022-09-06T10:25:52.974Z,1266.96
2022-09-06T10:26:52.982Z,1269.59
2022-09-06T10:28:10.384Z,1271.79
2022-09-06T10:28:53.997Z,1271.30
2022-09-06T10:29:53.064Z,1272.77
2022-09-06T10:30:53.044Z,1282.33
2022-09-06T10:31:53.008Z,1281.30
2022-09-06T10:32:53.005Z,1287.63
2022-09-06T10:33:53.013Z,1292.94
2022-09-06T10:34:52.013Z,1290.77
2022-09-06T10:35:51.989Z,1296.21
2022-09-06T10:36:52.021Z,1294.64
2022-09-06T10:37:52.017Z,1298.89
2022-09-06T10:38:52.025Z,1306.90
2022-09-06T10:39:52.093Z,1306.71
2022-09-06T10:40:52.053Z,1311.18
2022-09-06T10:41:52.043Z,1314.03
2022-09-06T10:42:52.051Z,1317.46
2022-09-06T10:43:52.071Z,1321.60
2022-09-06T10:44:52.033Z,1326.23
2022-09-06T10:45:52.052Z,1328.70
2022-09-06T10:46:52.099Z,1336.80
2022-09-06T10:47:52.036Z,1338.83
2022-09-06T10:48:52.038Z,1341.27
2022-09-06T10:49:52.059Z,1342.59
2022-09-06T10:50:52.072Z,1343.19
2022-09-06T10:51:53.029Z,1348.93
2022-09-06T10:52:52.065Z,1356.39
2022-09-06T10:53:52.061Z,1355.40
2022-09-06T10:54:52.071Z,1360.11
2022-09-06T10:55:52.094Z,1358.35
2022-09-06T10:56:52.096Z,1363.89
2022-09-06T10:59:53.131Z,1393.64
2022-09-06T11:00:52.175Z,1404.06
2022-09-06T11:01:52.324Z,1423.21
2022-09-06T11:05:53.264Z,1463.88
2022-09-06T11:06:52.222Z,1478.14
2022-09-06T11:08:55.855Z,1493.03
2022-09-06T11:09:52.229Z,1499.17
2022-09-06T11:10:52.233Z,1511.41
2022-09-06T11:11:52.240Z,1524.87
2022-09-06T11:12:52.212Z,1534.88
2022-09-06T11:13:52.185Z,1541.02
2022-09-06T11:14:52.168Z,1549.86
2022-09-06T11:15:52.155Z,1553.52
2022-09-06T11:16:52.095Z,1561.46
2022-09-06T11:17:52.094Z,1575.70
2022-09-06T11:18:52.033Z,1588.59
2022-09-06T11:19:52.065Z,1599.88
2022-09-06T11:20:52.031Z,1610.74
2022-09-06T11:21:52.002Z,1621.33
2022-09-06T11:22:52.023Z,1625.63
2022-09-06T11:23:52.065Z,1624.04
2022-09-06T11:24:52.001Z,1627.20
2022-09-06T11:25:52.009Z,1629.51
2022-09-06T11:26:51.938Z,1645.80
2022-09-06T11:27:56.077Z,1660.78
2022-09-06T11:28:53.034Z,1658.00
2022-09-06T11:29:51.895Z,1671.09
2022-09-06T11:30:51.897Z,1675.71
2022-09-06T11:32:52.866Z,1675.97
2022-09-06T11:33:51.888Z,1661.18
2022-09-06T11:34:51.879Z,1646.67
2022-09-06T11:35:51.858Z,1629.99
2022-09-06T11:36:51.849Z,1626.87
2022-09-06T11:37:51.857Z,1615.98
2022-09-06T11:38:51.858Z,1596.32
2022-09-06T11:40:52.887Z,1543.72
2022-09-06T11:41:51.847Z,1536.85
2022-09-06T11:42:51.860Z,1531.35
2022-09-06T11:43:51.852Z,1525.59
2022-09-06T11:44:51.861Z,1524.67
2022-09-06T11:45:51.870Z,1525.78
2022-09-06T11:46:51.903Z,1522.63
2022-09-06T11:47:51.842Z,1498.91
2022-09-06T11:48:51.888Z,1457.71
2022-09-06T11:49:51.858Z,1427.02
2022-09-06T11:50:51.881Z,1394.35
2022-09-06T11:51:52.850Z,1371.37
2022-09-06T11:52:51.880Z,1357.89
2022-09-06T11:53:51.890Z,1338.49
2022-09-06T11:54:51.903Z,1322.62
2022-09-06T11:55:51.912Z,1305.85
2022-09-06T11:56:51.921Z,1287.87
2022-09-06T11:57:50.902Z,1278.53
2022-09-06T11:58:50.912Z,1259.29
2022-09-06T11:59:50.912Z,1241.79
2022-09-06T12:00:50.929Z,1236.45
2022-09-06T12:01:50.934Z,1228.39
2022-09-06T12:02:51.151Z,1208.17
2022-09-06T12:04:07.349Z,1236.85
2022-09-06T12:04:51.909Z,1234.85
2022-09-06T12:05:50.904Z,1238.26
2022-09-06T12:06:50.882Z,1087.05
2022-09-06T12:07:50.887Z,873.62
2022-09-06T12:08:50.902Z,877.70
2022-09-06T12:09:50.874Z,860.21
2022-09-06T12:10:50.885Z,853.83
2022-09-06T12:11:51.909Z,847.02
2022-09-06T12:12:50.844Z,758.61
2022-09-06T12:13:50.829Z,737.07
2022-09-06T12:14:50.856Z,719.46
2022-09-06T12:15:50.847Z,702.86
2022-09-06T12:16:50.829Z,698.67
2022-09-06T12:17:50.811Z,705.79
2022-09-06T12:18:50.828Z,711.14
2022-09-06T12:19:50.800Z,711.45
2022-09-06T12:20:50.777Z,702.90
2022-09-06T12:21:50.750Z,694.78
2022-09-06T12:22:50.745Z,701.17
2022-09-06T12:23:50.718Z,719.42
2022-09-06T12:24:50.699Z,739.09
2022-09-06T12:25:50.738Z,753.38
2022-09-06T12:26:55.363Z,767.67
2022-09-06T12:27:51.764Z,777.83
2022-09-06T12:28:50.762Z,784.00
2022-09-06T12:29:50.701Z,786.74
2022-09-06T12:30:50.770Z,791.91
2022-09-06T12:31:50.780Z,790.89
2022-09-06T12:32:50.884Z,798.36
2022-09-06T12:33:50.705Z,811.28
2022-09-06T12:35:59.291Z,836.37
2022-09-06T12:36:51.728Z,849.40
2022-09-06T12:37:50.732Z,878.26
2022-09-06T12:38:50.803Z,914.33
2022-09-06T12:39:50.853Z,981.93
2022-09-06T12:40:50.826Z,1046.15
2022-09-06T12:41:50.838Z,1187.62
2022-09-06T12:42:50.830Z,1241.99
2022-09-06T12:43:50.824Z,1283.87
2022-09-06T12:44:50.846Z,1315.08
2022-09-06T12:45:50.883Z,1345.73
2022-09-06T12:46:50.933Z,1366.13
2022-09-06T12:47:50.847Z,1384.66
2022-09-06T12:48:50.878Z,1421.13
2022-09-06T12:49:50.880Z,1441.51
2022-09-06T12:50:50.877Z,1450.29
2022-09-06T12:51:50.903Z,1456.97
2022-09-06T12:52:50.918Z,1436.71
2022-09-06T12:53:50.904Z,1437.73
2022-09-06T12:54:50.990Z,1457.85
2022-09-06T12:55:50.948Z,1485.17
2022-09-06T12:56:50.967Z,1522.94
2022-09-06T12:57:51.007Z,1573.64
2022-09-06T12:58:51.027Z,1603.91
2022-09-06T12:59:51.033Z,1649.34
2022-09-06T13:00:51.027Z,1659.93
2022-09-06T13:01:51.193Z,1678.09
2022-09-06T13:02:51.100Z,1683.44
2022-09-06T13:03:51.066Z,1696.62
2022-09-06T13:04:50.078Z,1717.70
2022-09-06T13:05:50.051Z,1737.25
2022-09-06T13:06:50.071Z,1753.71
2022-09-06T13:07:50.061Z,1779.81
2022-09-06T13:08:50.077Z,1812.94
2022-09-06T13:09:50.124Z,1859.09
2022-09-06T13:10:50.104Z,1926.97
2022-09-06T13:11:50.140Z,1986.10
2022-09-06T13:12:50.102Z,2012.96
2022-09-06T13:13:50.123Z,2015.35
2022-09-06T13:14:50.132Z,2031.97
2022-09-06T13:15:50.231Z,2052.09
2022-09-06T13:16:50.133Z,2066.03
2022-09-06T13:17:50.133Z,2062.68
2022-09-06T13:18:50.135Z,2057.70
2022-09-06T13:19:50.134Z,2050.80
2022-09-06T13:20:50.136Z,2050.80
2022-09-06T13:21:50.132Z,2066.32
2022-09-06T13:22:50.121Z,2078.65
2022-09-06T13:23:50.125Z,2083.60
2022-09-06T13:24:51.110Z,2091.96
2022-09-06T13:25:50.197Z,2100.94
2022-09-06T13:26:50.127Z,2094.39
2022-09-06T13:27:50.187Z,2077.94
2022-09-06T13:28:50.143Z,2081.77
2022-09-06T13:29:50.177Z,2093.14
2022-09-06T13:30:50.237Z,2102.29
2022-09-06T13:31:50.781Z,2115.30
2022-09-06T13:32:50.234Z,2120.88
2022-09-06T13:33:50.241Z,2130.37
2022-09-06T13:34:50.251Z,2125.70
2022-09-06T13:35:50.309Z,2130.82
2022-09-06T13:36:50.293Z,2150.97